Terminal Aerodrome Forecast
Issued by NWS

Home | Current Version | Previous Version | Text Only | Print | Product List | Glossary On
Versions: 1 2 3 4 5 6 7 8 9 10 11 12 13 14 15
331
FTUS45 KMSO 061724
TAFSMN
TAF
KSMN 061724Z 0618/0718 VRB04KT P6SM BKN080
     FM062200 29011KT P6SM BKN060
     FM070300 VRB03KT P6SM SCT100
     FM071200 00000KT 5SM BR SCT004 SCT100
      AMD LTD TO CLD VIS AND WIND=

USA.gov is the U.S. government's official web portal to all federal, state and local government web resources and services.